Time;durP1;ratioP1;P1;durP2;ratioP2;P2;SDS_P1;SDS_P2;PMS_P1;PMS_P2;Temp;Humidity;BMP_temperature;BMP_pressure;BME280_temperature;BME280_humidity;BME280_pressure;Samples;Min_cycle;Max_cycle;Signal;HPM_P1;HPM_P2
2023/07/28 00:02:06;;;;;;;;;;;22.30;72.70;;;;;;5035211;28;20024;-69
2023/07/28 00:04:33;;;;;;;;;;;22.30;72.80;;;;;;5034882;28;19919;-68
2023/07/28 00:06:59;;;;;;;;;;;22.30;72.90;;;;;;5035364;28;19967;-68
2023/07/28 00:09:24;;;;;;;;;;;22.20;72.90;;;;;;5030480;28;20345;-67
2023/07/28 00:11:50;;;;;;;;;;;22.20;73.00;;;;;;5015589;28;19967;-67
2023/07/28 00:14:15;;;;;;;;;;;22.20;73.00;;;;;;5015617;28;19914;-67
2023/07/28 00:16:41;;;;;;;;;;;22.20;73.00;;;;;;5015648;28;19918;-67
2023/07/28 00:19:06;;;;;;;;;;;22.20;73.00;;;;;;5015265;28;20312;-69
2023/07/28 00:21:31;;;;;;;;;;;22.20;73.00;;;;;;5019542;28;19944;-68
2023/07/28 00:23:57;;;;;;;;;;;22.20;73.00;;;;;;5033556;28;19964;-67
2023/07/28 00:26:22;;;;;;;;;;;22.10;73.10;;;;;;5034846;28;19913;-68
2023/07/28 00:28:48;;;;;;;;;;;22.20;73.00;;;;;;5034221;28;19913;-68
2023/07/28 00:31:13;;;;;;;;;;;22.10;73.10;;;;;;5034875;28;19956;-68
2023/07/28 00:33:39;;;;;;;;;;;22.10;73.20;;;;;;5035063;28;19909;-67
2023/07/28 00:36:04;;;;;;;;;;;22.10;73.20;;;;;;5016620;28;19917;-67
2023/07/28 00:38:30;;;;;;;;;;;22.10;73.20;;;;;;5014991;28;20004;-68
2023/07/28 00:40:55;;;;;;;;;;;22.10;73.20;;;;;;5015445;28;19960;-68
2023/07/28 00:43:21;;;;;;;;;;;22.10;73.10;;;;;;5016098;28;19972;-67
2023/07/28 00:45:46;;;;;;;;;;;22.20;73.10;;;;;;5054890;28;19919;-68
2023/07/28 00:48:12;;;;;;;;;;;22.20;73.10;;;;;;5054451;28;19959;-67
2023/07/28 00:50:39;;;;;;;;;;;22.20;73.00;;;;;;5037873;28;20365;-67
2023/07/28 00:53:05;;;;;;;;;;;22.20;73.00;;;;;;5034367;28;19923;-67
2023/07/28 00:55:30;;;;;;;;;;;22.20;72.90;;;;;;5032918;28;20008;-68
2023/07/28 00:57:56;;;;;;;;;;;22.10;73.00;;;;;;5032937;28;19928;-69
2023/07/28 01:00:22;;;;;;;;;;;22.20;73.10;;;;;;5033590;28;20391;-74
2023/07/28 01:02:47;;;;;;;;;;;22.20;73.10;;;;;;5032739;28;19939;-72
2023/07/28 01:05:13;;;;;;;;;;;22.20;73.00;;;;;;5032706;28;19913;-72
2023/07/28 01:07:51;;;;;;;;;;;22.20;73.00;;;;;;5055741;22;19987;-80
2023/07/28 01:10:18;;;;;;;;;;;22.10;73.00;;;;;;5016690;28;19932;-77
2023/07/28 01:12:44;;;;;;;;;;;22.20;73.00;;;;;;5024584;28;19917;-78
2023/07/28 01:15:09;;;;;;;;;;;22.10;73.00;;;;;;5100657;23;19926;-72
2023/07/28 01:17:35;;;;;;;;;;;22.20;72.90;;;;;;5014386;28;20272;-72
2023/07/28 01:20:00;;;;;;;;;;;22.20;73.00;;;;;;5014243;28;20056;-72
2023/07/28 01:22:45;;;;;;;;;;;22.20;73.00;;;;;;5014252;28;19920;-72
2023/07/28 01:25:20;;;;;;;;;;;22.10;72.90;;;;;;5013185;28;20414;-73
2023/07/28 01:27:46;;;;;;;;;;;22.10;73.00;;;;;;4995881;28;19914;-73
2023/07/28 01:30:11;;;;;;;;;;;22.10;73.00;;;;;;5013217;28;19972;-73
2023/07/28 01:32:37;;;;;;;;;;;22.10;73.10;;;;;;5013269;28;20277;-73
2023/07/28 01:35:03;;;;;;;;;;;22.10;73.20;;;;;;5013987;28;19961;-73
2023/07/28 01:37:29;;;;;;;;;;;22.10;73.20;;;;;;5013773;28;19917;-73
2023/07/28 01:39:54;;;;;;;;;;;22.00;73.20;;;;;;5013902;28;20289;-73
2023/07/28 01:42:20;;;;;;;;;;;22.10;73.20;;;;;;5013557;28;20012;-72
2023/07/28 01:44:45;;;;;;;;;;;22.10;73.10;;;;;;5011974;28;19956;-72
2023/07/28 01:47:11;;;;;;;;;;;22.10;73.20;;;;;;5012907;28;19968;-72
2023/07/28 01:49:36;;;;;;;;;;;22.10;73.10;;;;;;5013778;28;19958;-71
2023/07/28 01:52:02;;;;;;;;;;;22.10;73.10;;;;;;5013187;28;20376;-73
2023/07/28 01:54:28;;;;;;;;;;;22.10;73.10;;;;;;4996070;28;19922;-73
2023/07/28 01:56:53;;;;;;;;;;;22.10;73.10;;;;;;5013406;28;19913;-71
2023/07/28 01:59:20;;;;;;;;;;;22.10;73.10;;;;;;5011485;28;19918;-72
2023/07/28 02:01:45;;;;;;;;;;;22.10;73.10;;;;;;5008904;28;19914;-72
2023/07/28 02:04:11;;;;;;;;;;;22.10;73.20;;;;;;5013303;28;19917;-73
2023/07/28 02:06:36;;;;;;;;;;;22.10;73.20;;;;;;5013358;28;19916;-72
2023/07/28 02:09:02;;;;;;;;;;;22.00;73.10;;;;;;5020570;28;19917;-73
2023/07/28 02:11:27;;;;;;;;;;;22.10;73.20;;;;;;5032706;28;20501;-74
2023/07/28 02:13:53;;;;;;;;;;;22.10;73.20;;;;;;5032403;28;20410;-74
2023/07/28 02:16:18;;;;;;;;;;;22.10;73.20;;;;;;5027321;28;19917;-73
2023/07/28 02:18:44;;;;;;;;;;;22.10;73.10;;;;;;5013185;28;19910;-73
2023/07/28 02:21:09;;;;;;;;;;;22.10;73.10;;;;;;5013069;28;19924;-73
2023/07/28 02:23:35;;;;;;;;;;;22.10;73.10;;;;;;5012747;28;19996;-73
2023/07/28 02:26:00;;;;;;;;;;;22.10;73.20;;;;;;5012946;28;19913;-74
2023/07/28 02:28:26;;;;;;;;;;;22.10;73.10;;;;;;5011558;28;19918;-73
2023/07/28 02:30:52;;;;;;;;;;;22.10;73.10;;;;;;5019799;28;19917;-73
2023/07/28 02:33:17;;;;;;;;;;;22.10;73.10;;;;;;5028080;28;20028;-73
2023/07/28 02:35:43;;;;;;;;;;;22.10;73.10;;;;;;5013103;28;19924;-73
2023/07/28 02:38:08;;;;;;;;;;;22.10;73.20;;;;;;5012143;28;19953;-73
2023/07/28 02:40:34;;;;;;;;;;;22.10;73.10;;;;;;5012884;28;19929;-73
2023/07/28 02:42:59;;;;;;;;;;;22.10;73.10;;;;;;5007954;28;19914;-73
2023/07/28 02:45:25;;;;;;;;;;;22.10;73.20;;;;;;5010727;28;20416;-73
2023/07/28 02:47:50;;;;;;;;;;;22.10;73.10;;;;;;5011591;28;19914;-73
2023/07/28 02:50:16;;;;;;;;;;;22.10;73.10;;;;;;5012762;28;20043;-71
2023/07/28 02:52:42;;;;;;;;;;;22.10;73.20;;;;;;5012673;28;19975;-72
2023/07/28 02:55:07;;;;;;;;;;;22.10;73.20;;;;;;5012673;28;20019;-73
2023/07/28 02:57:33;;;;;;;;;;;22.10;73.20;;;;;;5010550;28;20296;-73
2023/07/28 02:59:58;;;;;;;;;;;22.10;73.00;;;;;;5010951;28;19925;-73
2023/07/28 03:02:24;;;;;;;;;;;22.10;73.10;;;;;;5014663;28;20007;-73
2023/07/28 03:04:49;;;;;;;;;;;22.10;73.10;;;;;;5028639;28;19987;-72
2023/07/28 03:07:15;;;;;;;;;;;22.00;73.10;;;;;;5012577;28;19917;-72
2023/07/28 03:09:40;;;;;;;;;;;22.00;73.10;;;;;;5012313;28;19944;-72
2023/07/28 03:12:06;;;;;;;;;;;22.00;73.10;;;;;;5012200;28;20283;-71
2023/07/28 03:14:32;;;;;;;;;;;22.00;73.20;;;;;;5011921;28;20292;-73
2023/07/28 03:16:57;;;;;;;;;;;22.00;73.20;;;;;;5012097;28;19913;-72
2023/07/28 03:19:23;;;;;;;;;;;22.00;73.20;;;;;;5011918;28;19918;-74
2023/07/28 03:21:48;;;;;;;;;;;22.00;73.10;;;;;;5011823;28;19924;-73
2023/07/28 03:24:14;;;;;;;;;;;22.10;73.10;;;;;;5031721;28;20024;-72
2023/07/28 03:26:39;;;;;;;;;;;22.00;73.00;;;;;;5013746;28;19979;-72
2023/07/28 03:29:05;;;;;;;;;;;22.10;73.00;;;;;;5011300;28;20369;-72
2023/07/28 03:31:30;;;;;;;;;;;22.10;73.00;;;;;;5010845;28;20421;-72
2023/07/28 03:33:55;;;;;;;;;;;22.10;73.00;;;;;;5011122;28;19917;-71
2023/07/28 03:36:21;;;;;;;;;;;22.10;73.10;;;;;;5012066;28;20022;-72
2023/07/28 03:38:47;;;;;;;;;;;22.10;73.00;;;;;;5009798;28;19948;-71
2023/07/28 03:41:12;;;;;;;;;;;22.20;73.00;;;;;;5010961;28;20130;-72
2023/07/28 03:43:38;;;;;;;;;;;22.20;72.90;;;;;;5019105;28;19929;-72
2023/07/28 03:46:03;;;;;;;;;;;22.20;72.90;;;;;;5011842;28;19920;-72
2023/07/28 03:48:29;;;;;;;;;;;22.20;72.90;;;;;;5028383;28;19913;-72
2023/07/28 03:50:57;;;;;;;;;;;22.30;72.90;;;;;;5032002;28;20352;-71
2023/07/28 03:53:25;;;;;;;;;;;22.30;72.90;;;;;;5031776;28;20374;-72
2023/07/28 03:55:51;;;;;;;;;;;22.30;72.80;;;;;;5032130;28;19925;-73
2023/07/28 03:58:16;;;;;;;;;;;22.30;72.80;;;;;;5031558;28;20283;-72
2023/07/28 04:00:42;;;;;;;;;;;22.30;72.80;;;;;;5014554;28;19968;-73
2023/07/28 04:03:07;;;;;;;;;;;22.30;72.80;;;;;;5011726;28;19913;-71
2023/07/28 04:05:33;;;;;;;;;;;22.30;72.70;;;;;;5011955;28;19969;-72
2023/07/28 04:07:58;;;;;;;;;;;22.30;72.70;;;;;;5011682;28;19913;-71
2023/07/28 04:10:23;;;;;;;;;;;22.30;72.50;;;;;;5012120;28;20250;-72
2023/07/28 04:12:49;;;;;;;;;;;22.30;72.80;;;;;;5011507;28;20380;-72
2023/07/28 04:15:14;;;;;;;;;;;22.40;72.70;;;;;;5009307;28;19929;-71
2023/07/28 04:17:40;;;;;;;;;;;22.40;72.60;;;;;;4991624;28;19925;-72
2023/07/28 04:20:06;;;;;;;;;;;22.40;72.70;;;;;;5010903;28;20020;-72
2023/07/28 04:22:31;;;;;;;;;;;22.40;72.60;;;;;;5008857;28;20008;-71
2023/07/28 04:24:56;;;;;;;;;;;22.40;72.60;;;;;;5015607;28;19956;-72
2023/07/28 04:27:22;;;;;;;;;;;22.40;72.50;;;;;;5031136;28;20001;-72
2023/07/28 04:29:47;;;;;;;;;;;22.40;72.60;;;;;;5020175;28;19933;-71
2023/07/28 04:32:13;;;;;;;;;;;22.40;72.70;;;;;;5011258;28;20032;-73
2023/07/28 04:34:38;;;;;;;;;;;22.50;72.70;;;;;;5011462;28;19921;-72
2023/07/28 04:37:04;;;;;;;;;;;22.50;72.70;;;;;;5012088;28;20385;-72
2023/07/28 04:39:29;;;;;;;;;;;22.50;72.70;;;;;;5014851;28;20364;-71
2023/07/28 04:41:55;;;;;;;;;;;22.50;72.70;;;;;;5007752;28;19920;-72
2023/07/28 04:44:20;;;;;;;;;;;22.50;72.70;;;;;;5026010;28;20349;-72
2023/07/28 04:46:49;;;;;;;;;;;22.40;72.60;;;;;;5014854;28;20365;-72
2023/07/28 04:49:14;;;;;;;;;;;22.40;72.90;;;;;;5014942;28;19917;-72
2023/07/28 04:51:40;;;;;;;;;;;22.40;72.90;;;;;;5014964;28;19962;-73
2023/07/28 04:54:05;;;;;;;;;;;22.40;72.90;;;;;;4997098;28;20032;-72
2023/07/28 04:56:31;;;;;;;;;;;22.40;72.90;;;;;;5014410;28;19909;-71
2023/07/28 04:58:58;;;;;;;;;;;22.40;72.80;;;;;;5014844;28;19924;-72
2023/07/28 05:01:24;;;;;;;;;;;22.40;73.00;;;;;;5014363;28;19920;-72
2023/07/28 05:03:49;;;;;;;;;;;22.40;73.10;;;;;;5014329;28;19996;-72
2023/07/28 05:06:15;;;;;;;;;;;22.40;73.00;;;;;;5014323;28;20280;-72
2023/07/28 05:08:40;;;;;;;;;;;22.50;72.90;;;;;;5011618;28;19920;-71
2023/07/28 05:11:05;;;;;;;;;;;22.50;73.00;;;;;;5014225;28;20003;-73
2023/07/28 05:13:31;;;;;;;;;;;22.50;73.00;;;;;;5012838;28;19917;-72
2023/07/28 05:15:56;;;;;;;;;;;22.60;73.10;;;;;;5013116;28;19922;-73
2023/07/28 05:18:22;;;;;;;;;;;22.60;73.20;;;;;;5011532;28;19913;-73
2023/07/28 05:20:47;;;;;;;;;;;22.60;73.10;;;;;;5013962;28;19931;-71
2023/07/28 05:23:13;;;;;;;;;;;22.70;73.00;;;;;;5013765;28;20000;-72
2023/07/28 05:25:38;;;;;;;;;;;22.70;73.10;;;;;;5014127;28;19922;-72
2023/07/28 05:28:03;;;;;;;;;;;22.70;73.00;;;;;;5013774;28;19975;-72
2023/07/28 05:30:29;;;;;;;;;;;22.80;73.00;;;;;;5013526;28;19979;-74
2023/07/28 05:32:54;;;;;;;;;;;22.70;73.00;;;;;;5012591;28;19913;-73
2023/07/28 05:35:20;;;;;;;;;;;22.80;73.10;;;;;;5009896;28;19936;-72
2023/07/28 05:37:46;;;;;;;;;;;22.80;73.20;;;;;;5005451;28;19917;-72
2023/07/28 05:40:12;;;;;;;;;;;22.90;73.10;;;;;;5008791;28;19964;-71
2023/07/28 05:42:37;;;;;;;;;;;23.00;73.10;;;;;;4988047;28;19917;-71
2023/07/28 05:45:03;;;;;;;;;;;23.00;73.00;;;;;;5014455;28;19936;-72
2023/07/28 05:47:28;;;;;;;;;;;23.10;73.10;;;;;;5011314;28;19917;-71
2023/07/28 05:49:54;;;;;;;;;;;23.20;73.10;;;;;;5008988;28;19943;-71
2023/07/28 05:52:20;;;;;;;;;;;23.20;72.90;;;;;;5012040;28;20391;-71
2023/07/28 05:54:45;;;;;;;;;;;23.20;72.90;;;;;;4994894;28;19914;-71
2023/07/28 05:57:10;;;;;;;;;;;23.30;72.80;;;;;;5013344;28;19964;-73
2023/07/28 05:59:36;;;;;;;;;;;23.30;73.00;;;;;;5010075;28;19949;-68
2023/07/28 06:02:02;;;;;;;;;;;23.30;72.90;;;;;;5013362;28;19944;-67
2023/07/28 06:04:27;;;;;;;;;;;23.40;72.80;;;;;;5011923;28;19913;-67
2023/07/28 06:06:54;;;;;;;;;;;23.40;72.80;;;;;;5010658;28;21492;-67
2023/07/28 06:09:20;;;;;;;;;;;23.50;72.70;;;;;;5010877;28;20004;-67
2023/07/28 06:11:45;;;;;;;;;;;23.50;72.80;;;;;;5013110;28;19953;-68
2023/07/28 06:14:11;;;;;;;;;;;23.70;72.70;;;;;;5011483;28;19935;-68
2023/07/28 06:16:36;;;;;;;;;;;23.70;72.60;;;;;;5010619;28;19940;-68
2023/07/28 06:19:01;;;;;;;;;;;23.60;72.50;;;;;;5011503;28;19914;-66
2023/07/28 06:21:27;;;;;;;;;;;23.60;72.50;;;;;;5012670;28;19921;-67
2023/07/28 06:23:52;;;;;;;;;;;23.60;72.50;;;;;;5010957;28;19968;-66
2023/07/28 06:26:18;;;;;;;;;;;23.60;72.40;;;;;;5011693;28;19925;-67
2023/07/28 06:28:44;;;;;;;;;;;23.60;72.40;;;;;;5011094;28;19914;-68
2023/07/28 06:31:10;;;;;;;;;;;23.60;72.30;;;;;;5011264;28;19917;-67
2023/07/28 06:33:36;;;;;;;;;;;23.60;72.30;;;;;;5011574;28;20327;-67
2023/07/28 06:36:02;;;;;;;;;;;23.50;72.40;;;;;;5010179;28;20343;-67
2023/07/28 06:38:28;;;;;;;;;;;23.50;72.40;;;;;;5011755;28;19959;-67
2023/07/28 06:40:53;;;;;;;;;;;23.50;72.70;;;;;;5012161;28;19921;-67
2023/07/28 06:43:19;;;;;;;;;;;23.50;72.70;;;;;;5010939;28;19921;-67
2023/07/28 06:45:45;;;;;;;;;;;23.50;72.70;;;;;;5011303;28;19913;-68
2023/07/28 06:48:10;;;;;;;;;;;23.50;72.70;;;;;;5012335;28;19967;-67
2023/07/28 06:50:36;;;;;;;;;;;23.50;72.80;;;;;;5009604;28;20357;-67
2023/07/28 06:53:01;;;;;;;;;;;23.50;72.90;;;;;;5011489;28;20325;-67
2023/07/28 06:55:27;;;;;;;;;;;23.50;72.90;;;;;;5012030;28;20360;-67
2023/07/28 06:57:52;;;;;;;;;;;23.60;73.10;;;;;;5011941;28;19921;-67
2023/07/28 07:00:18;;;;;;;;;;;23.70;73.10;;;;;;5009893;28;19976;-67
2023/07/28 07:02:43;;;;;;;;;;;23.70;73.10;;;;;;5010179;28;19925;-67
2023/07/28 07:05:09;;;;;;;;;;;23.80;73.00;;;;;;5011153;28;20404;-67
2023/07/28 07:07:34;;;;;;;;;;;23.90;73.00;;;;;;5012429;28;20327;-67
2023/07/28 07:10:00;;;;;;;;;;;24.00;72.90;;;;;;5007598;28;19928;-70
2023/07/28 07:12:25;;;;;;;;;;;24.10;73.10;;;;;;5011216;28;19922;-71
2023/07/28 07:14:51;;;;;;;;;;;24.20;73.20;;;;;;5011595;28;19979;-69
2023/07/28 07:17:16;;;;;;;;;;;24.30;72.80;;;;;;5010246;28;19963;-69
2023/07/28 07:19:41;;;;;;;;;;;24.30;72.70;;;;;;5023672;28;19909;-70
2023/07/28 07:22:07;;;;;;;;;;;24.30;72.70;;;;;;5018982;28;19928;-71
2023/07/28 07:24:32;;;;;;;;;;;24.30;72.90;;;;;;5011722;28;20279;-71
2023/07/28 07:26:58;;;;;;;;;;;24.30;72.70;;;;;;5010099;28;19922;-71
2023/07/28 07:29:24;;;;;;;;;;;24.30;72.80;;;;;;5011935;28;20357;-71
2023/07/28 07:31:54;;;;;;;;;;;24.30;72.70;;;;;;5012009;28;20299;-70
2023/07/28 07:34:20;;;;;;;;;;;24.30;72.70;;;;;;5010009;28;19925;-70
2023/07/28 07:36:45;;;;;;;;;;;24.40;72.90;;;;;;5011685;28;19918;-71
2023/07/28 07:39:11;;;;;;;;;;;24.50;72.70;;;;;;5010783;28;19914;-71
2023/07/28 07:41:36;;;;;;;;;;;24.50;72.70;;;;;;5011637;28;19921;-70
2023/07/28 07:44:02;;;;;;;;;;;24.50;72.80;;;;;;5010689;28;20353;-70
2023/07/28 07:46:27;;;;;;;;;;;24.70;72.70;;;;;;5011951;28;20121;-71
2023/07/28 07:48:53;;;;;;;;;;;24.70;72.60;;;;;;5011515;28;19964;-71
2023/07/28 07:51:18;;;;;;;;;;;24.80;72.70;;;;;;5009215;28;19928;-70
2023/07/28 07:53:44;;;;;;;;;;;24.80;72.30;;;;;;5011637;28;20420;-70
2023/07/28 07:56:09;;;;;;;;;;;24.90;72.70;;;;;;5010516;28;19918;-71
2023/07/28 07:58:35;;;;;;;;;;;25.00;72.40;;;;;;5011461;28;19910;-70
2023/07/28 08:01:00;;;;;;;;;;;25.10;72.70;;;;;;5011534;28;20411;-71
2023/07/28 08:03:27;;;;;;;;;;;25.20;72.50;;;;;;5010451;28;19918;-70
2023/07/28 08:05:52;;;;;;;;;;;25.20;72.50;;;;;;5011332;28;19964;-71
2023/07/28 08:08:19;;;;;;;;;;;25.30;72.70;;;;;;5008622;28;19926;-70
2023/07/28 08:10:48;;;;;;;;;;;25.50;72.70;;;;;;5011338;28;19919;-70
2023/07/28 08:13:14;;;;;;;;;;;25.80;73.10;;;;;;4995664;28;19913;-71
2023/07/28 08:15:39;;;;;;;;;;;26.10;72.60;;;;;;5015002;28;19917;-70
2023/07/28 08:18:05;;;;;;;;;;;26.40;72.70;;;;;;5012685;28;20007;-69
2023/07/28 08:20:30;;;;;;;;;;;26.70;72.80;;;;;;5015340;28;19933;-68
2023/07/28 08:22:55;;;;;;;;;;;26.90;72.80;;;;;;5015165;28;19921;-69
2023/07/28 08:25:22;;;;;;;;;;;27.30;73.20;;;;;;5013272;28;19996;-69
2023/07/28 08:27:48;;;;;;;;;;;27.70;72.70;;;;;;5015250;28;20064;-69
2023/07/28 08:30:15;;;;;;;;;;;28.10;72.80;;;;;;5012187;28;20436;-68
2023/07/28 08:32:41;;;;;;;;;;;28.40;72.40;;;;;;5014375;28;20004;-69
2023/07/28 08:35:08;;;;;;;;;;;28.70;72.30;;;;;;5014883;28;20484;-68
2023/07/28 08:37:33;;;;;;;;;;;28.80;71.90;;;;;;5014197;28;19917;-69
2023/07/28 08:39:59;;;;;;;;;;;29.10;72.10;;;;;;5014279;28;19992;-69
2023/07/28 08:42:24;;;;;;;;;;;29.50;73.10;;;;;;5014682;28;19922;-69
2023/07/28 08:44:52;;;;;;;;;;;30.00;73.40;;;;;;5013473;28;20404;-69
2023/07/28 08:47:17;;;;;;;;;;;30.50;72.50;;;;;;5014782;28;20365;-69
2023/07/28 08:49:43;;;;;;;;;;;30.80;71.30;;;;;;5013905;28;19913;-70
2023/07/28 08:52:08;;;;;;;;;;;31.00;70.50;;;;;;5014598;28;19925;-70
2023/07/28 08:54:34;;;;;;;;;;;31.00;70.20;;;;;;5013795;28;19913;-70
2023/07/28 08:56:59;;;;;;;;;;;31.00;70.50;;;;;;5013714;28;20283;-70
2023/07/28 08:59:26;;;;;;;;;;;30.80;70.10;;;;;;5014324;28;19910;-71
2023/07/28 09:01:53;;;;;;;;;;;30.60;70.40;;;;;;5011864;28;20284;-71
2023/07/28 09:04:20;;;;;;;;;;;30.50;71.10;;;;;;5014106;28;19956;-71
2023/07/28 09:06:46;;;;;;;;;;;30.80;71.30;;;;;;5014410;28;19917;-71
2023/07/28 09:09:11;;;;;;;;;;;31.20;72.70;;;;;;5011534;28;19913;-71
2023/07/28 09:11:44;;;;;;;;;;;31.50;71.40;;;;;;5013507;28;20390;-71
2023/07/28 09:14:11;;;;;;;;;;;31.70;70.60;;;;;;5013819;28;19913;-71
2023/07/28 09:16:36;;;;;;;;;;;31.70;69.40;;;;;;5012641;28;19918;-71
2023/07/28 09:19:06;;;;;;;;;;;31.50;69.20;;;;;;5013897;28;19910;-71
2023/07/28 09:21:32;;;;;;;;;;;31.30;70.00;;;;;;4995964;28;19922;-71
2023/07/28 09:24:03;;;;;;;;;;;31.20;69.70;;;;;;5010529;28;20329;-71
2023/07/28 09:26:42;;;;;;;;;;;31.10;68.10;;;;;;5013664;28;19968;-71
2023/07/28 09:29:17;;;;;;;;;;;31.40;71.30;;;;;;5012004;28;19936;-72
2023/07/28 09:31:49;;;;;;;;;;;31.90;72.10;;;;;;5013823;28;19939;-72
2023/07/28 09:34:26;;;;;;;;;;;32.40;71.70;;;;;;5012882;28;19956;-72
2023/07/28 09:36:53;;;;;;;;;;;32.70;71.20;;;;;;5013640;28;19975;-72
2023/07/28 09:39:19;;;;;;;;;;;33.00;72.00;;;;;;5012844;28;19913;-72
2023/07/28 09:41:44;;;;;;;;;;;33.20;71.30;;;;;;5013823;28;19925;-72
2023/07/28 09:44:10;;;;;;;;;;;33.30;70.60;;;;;;5013320;28;19910;-72
2023/07/28 09:46:47;;;;;;;;;;;33.50;71.20;;;;;;5012142;28;19925;-72
2023/07/28 09:49:14;;;;;;;;;;;33.80;71.70;;;;;;5013448;28;20028;-72
2023/07/28 09:51:41;;;;;;;;;;;34.30;71.80;;;;;;5011873;28;19929;-72
2023/07/28 09:54:14;;;;;;;;;;;34.70;70.20;;;;;;5013177;28;19909;-71
2023/07/28 09:56:41;;;;;;;;;;;35.20;69.80;;;;;;5013358;28;19921;-72
2023/07/28 09:59:11;;;;;;;;;;;35.80;68.10;;;;;;5011878;28;19914;-72
2023/07/28 10:01:37;;;;;;;;;;;36.20;67.10;;;;;;5011348;28;19921;-72
2023/07/28 10:04:03;;;;;;;;;;;36.70;66.60;;;;;;5012592;28;19916;-72
2023/07/28 10:06:29;;;;;;;;;;;37.00;64.50;;;;;;5012042;28;19921;-72
2023/07/28 10:08:55;;;;;;;;;;;37.20;65.00;;;;;;5012847;28;20400;-72
2023/07/28 10:11:21;;;;;;;;;;;37.30;63.30;;;;;;5011404;28;19953;-72
2023/07/28 10:13:47;;;;;;;;;;;37.40;62.00;;;;;;5012977;28;19914;-71
2023/07/28 10:16:15;;;;;;;;;;;37.30;62.40;;;;;;5012902;28;19929;-73
2023/07/28 10:18:41;;;;;;;;;;;36.90;57.40;;;;;;5011351;28;20373;-74
2023/07/28 10:21:13;;;;;;;;;;;36.30;56.30;;;;;;5012777;28;19921;-71
2023/07/28 10:23:38;;;;;;;;;;;35.80;56.50;;;;;;5012188;28;20015;-73
2023/07/28 10:26:07;;;;;;;;;;;35.30;56.90;;;;;;5012790;28;20016;-74
2023/07/28 10:28:38;;;;;;;;;;;35.10;57.00;;;;;;5011838;28;20063;-73
2023/07/28 10:31:08;;;;;;;;;;;34.90;58.10;;;;;;5012910;28;19918;-77
2023/07/28 10:33:38;;;;;;;;;;;34.80;56.90;;;;;;4990204;28;19924;-73
2023/07/28 10:36:14;;;;;;;;;;;34.60;55.00;;;;;;4996166;28;20387;-72
2023/07/28 10:38:40;;;;;;;;;;;34.50;55.50;;;;;;5011327;28;19921;-72
2023/07/28 10:41:15;;;;;;;;;;;34.60;56.00;;;;;;5011846;28;19921;-73
2023/07/28 10:43:42;;;;;;;;;;;34.50;51.70;;;;;;5011771;28;19918;-72
2023/07/28 10:46:08;;;;;;;;;;;34.30;51.50;;;;;;5011643;28;19917;-72
2023/07/28 10:48:34;;;;;;;;;;;34.30;52.70;;;;;;5012404;28;19932;-73
2023/07/28 10:51:00;;;;;;;;;;;34.40;52.70;;;;;;5012198;28;19918;-73
2023/07/28 10:53:26;;;;;;;;;;;34.50;52.90;;;;;;5010731;28;19917;-73
2023/07/28 10:55:52;;;;;;;;;;;34.40;51.00;;;;;;4993813;28;20369;-73
2023/07/28 10:58:18;;;;;;;;;;;34.20;48.50;;;;;;4994637;28;20285;-73
2023/07/28 11:00:44;;;;;;;;;;;33.60;50.40;;;;;;5009890;28;20331;-75
2023/07/28 11:03:10;;;;;;;;;;;33.00;52.60;;;;;;5010032;28;19913;-74
2023/07/28 11:05:35;;;;;;;;;;;32.50;55.20;;;;;;5024976;28;19951;-73
2023/07/28 11:08:02;;;;;;;;;;;32.10;56.80;;;;;;5014296;28;19917;-72
2023/07/28 11:10:31;;;;;;;;;;;31.80;57.80;;;;;;4994277;28;19921;-72
2023/07/28 11:13:01;;;;;;;;;;;31.50;59.70;;;;;;4992881;28;20484;-73
2023/07/28 11:15:26;;;;;;;;;;;31.40;59.80;;;;;;5011564;28;19928;-73
2023/07/28 11:17:52;;;;;;;;;;;31.30;60.50;;;;;;5011772;28;20361;-73
2023/07/28 11:20:22;;;;;;;;;;;31.50;60.90;;;;;;5011810;28;19914;-73
2023/07/28 11:22:58;;;;;;;;;;;31.90;60.90;;;;;;5010971;28;19921;-73
2023/07/28 11:25:24;;;;;;;;;;;32.50;60.40;;;;;;5008696;28;20415;-74
2023/07/28 11:27:50;;;;;;;;;;;32.90;60.20;;;;;;4993634;28;20348;-72
2023/07/28 11:30:16;;;;;;;;;;;33.30;59.10;;;;;;5008220;28;19920;-72
2023/07/28 11:32:43;;;;;;;;;;;33.70;55.80;;;;;;4992705;28;19921;-74
2023/07/28 11:35:09;;;;;;;;;;;34.10;53.70;;;;;;5010069;28;19924;-74
2023/07/28 11:37:35;;;;;;;;;;;34.40;53.00;;;;;;4992660;28;19957;-74
2023/07/28 11:40:03;;;;;;;;;;;34.70;52.90;;;;;;5007859;28;20000;-73
2023/07/28 11:42:28;;;;;;;;;;;35.10;52.90;;;;;;5010747;28;20020;-73
2023/07/28 11:44:54;;;;;;;;;;;35.50;54.30;;;;;;5006572;28;20017;-72
2023/07/28 11:47:20;;;;;;;;;;;35.90;51.40;;;;;;4991830;28;19999;-72
2023/07/28 11:49:50;;;;;;;;;;;36.20;48.70;;;;;;5014474;28;20347;-69
2023/07/28 11:52:16;;;;;;;;;;;36.40;49.10;;;;;;5014537;28;20419;-68
2023/07/28 11:54:41;;;;;;;;;;;36.70;50.10;;;;;;5009850;28;19913;-69
2023/07/28 11:57:08;;;;;;;;;;;37.10;49.50;;;;;;5011596;28;19939;-70
2023/07/28 11:59:34;;;;;;;;;;;37.40;46.00;;;;;;5011874;28;19913;-69
2023/07/28 12:02:01;;;;;;;;;;;37.50;45.80;;;;;;5014836;28;19944;-69
2023/07/28 12:04:28;;;;;;;;;;;37.60;42.20;;;;;;4990866;28;19925;-69
2023/07/28 12:07:08;;;;;;;;;;;37.60;42.30;;;;;;5013698;28;19921;-69
2023/07/28 12:09:46;;;;;;;;;;;37.70;41.70;;;;;;5020163;28;20534;-69
2023/07/28 12:12:12;;;;;;;;;;;37.80;41.40;;;;;;5012786;28;19917;-70
2023/07/28 12:14:38;;;;;;;;;;;38.00;42.80;;;;;;5012810;28;19933;-69
2023/07/28 12:17:03;;;;;;;;;;;38.30;43.40;;;;;;5013596;28;20000;-69
2023/07/28 12:19:28;;;;;;;;;;;38.70;43.00;;;;;;5010460;28;20345;-70
2023/07/28 12:21:54;;;;;;;;;;;38.90;42.30;;;;;;5013264;28;19975;-69
2023/07/28 12:24:19;;;;;;;;;;;39.10;42.20;;;;;;5016322;28;19920;-69
2023/07/28 12:26:46;;;;;;;;;;;39.00;40.00;;;;;;5013358;28;19917;-71
2023/07/28 12:29:11;;;;;;;;;;;38.80;40.30;;;;;;5018264;28;19931;-69
2023/07/28 12:31:37;;;;;;;;;;;38.70;38.80;;;;;;5012844;28;19917;-69
2023/07/28 12:34:02;;;;;;;;;;;38.60;38.60;;;;;;5008953;28;19920;-69
2023/07/28 12:36:28;;;;;;;;;;;38.50;38.80;;;;;;5013146;28;19922;-69
2023/07/28 12:38:53;;;;;;;;;;;38.40;38.80;;;;;;5011911;28;20347;-68
2023/07/28 12:41:18;;;;;;;;;;;38.50;38.60;;;;;;4994294;28;19972;-68
2023/07/28 12:43:44;;;;;;;;;;;38.50;36.70;;;;;;5007193;28;19928;-68
2023/07/28 12:46:10;;;;;;;;;;;38.30;38.80;;;;;;5013398;28;19921;-69
2023/07/28 12:48:36;;;;;;;;;;;38.40;38.90;;;;;;5012425;28;20357;-69
2023/07/28 12:51:01;;;;;;;;;;;38.30;38.80;;;;;;5014405;28;20020;-69
2023/07/28 12:53:26;;;;;;;;;;;38.00;38.80;;;;;;5008311;28;21223;-69
2023/07/28 12:55:52;;;;;;;;;;;37.90;37.70;;;;;;5017521;28;19951;-69
2023/07/28 12:58:17;;;;;;;;;;;37.80;37.60;;;;;;5012889;28;19997;-69
2023/07/28 13:00:43;;;;;;;;;;;37.80;37.40;;;;;;5016361;28;20280;-69
2023/07/28 13:03:09;;;;;;;;;;;37.80;37.10;;;;;;5010467;28;20308;-67
2023/07/28 13:05:35;;;;;;;;;;;37.80;37.40;;;;;;5012657;28;19917;-69
2023/07/28 13:08:00;;;;;;;;;;;37.80;35.90;;;;;;5013696;28;19917;-69
2023/07/28 13:10:26;;;;;;;;;;;37.70;35.90;;;;;;4991680;28;19910;-68
2023/07/28 13:12:51;;;;;;;;;;;37.80;36.10;;;;;;5012175;28;19918;-70
2023/07/28 13:15:17;;;;;;;;;;;38.00;37.60;;;;;;4994188;28;20365;-68
2023/07/28 13:17:42;;;;;;;;;;;38.10;36.20;;;;;;5013277;28;20270;-70
2023/07/28 13:20:09;;;;;;;;;;;38.20;35.70;;;;;;4993548;28;19918;-69
2023/07/28 13:22:34;;;;;;;;;;;38.20;35.90;;;;;;5012715;28;20407;-69
2023/07/28 13:25:00;;;;;;;;;;;38.10;35.60;;;;;;5012719;28;19914;-68
2023/07/28 13:27:25;;;;;;;;;;;37.90;36.10;;;;;;5013059;28;19909;-68
2023/07/28 13:29:50;;;;;;;;;;;37.80;37.10;;;;;;5012917;28;19956;-70
2023/07/28 13:32:23;;;;;;;;;;;37.80;37.00;;;;;;4990047;28;19913;-70
2023/07/28 13:34:48;;;;;;;;;;;38.00;37.60;;;;;;5008797;28;20324;-68
2023/07/28 13:37:14;;;;;;;;;;;38.20;36.50;;;;;;5013285;28;19916;-69
2023/07/28 13:39:41;;;;;;;;;;;38.30;36.10;;;;;;5012394;28;20372;-70
2023/07/28 13:42:07;;;;;;;;;;;38.30;36.10;;;;;;5012172;28;20442;-67
2023/07/28 13:44:32;;;;;;;;;;;38.50;35.20;;;;;;4994717;28;19922;-69
2023/07/28 13:46:58;;;;;;;;;;;38.50;34.60;;;;;;5013026;28;19952;-70
2023/07/28 13:49:23;;;;;;;;;;;38.40;35.10;;;;;;5012258;28;19913;-68
2023/07/28 13:51:48;;;;;;;;;;;38.60;35.00;;;;;;5013573;28;19922;-69
2023/07/28 13:54:14;;;;;;;;;;;38.70;34.90;;;;;;4995331;28;19909;-70
2023/07/28 13:56:39;;;;;;;;;;;38.80;35.10;;;;;;5013028;28;20315;-69
2023/07/28 13:59:05;;;;;;;;;;;38.70;33.40;;;;;;5012835;28;19910;-70
2023/07/28 14:01:32;;;;;;;;;;;38.80;34.40;;;;;;4994633;28;20019;-70
2023/07/28 14:03:57;;;;;;;;;;;38.70;34.10;;;;;;4994962;28;20262;-69
2023/07/28 14:06:23;;;;;;;;;;;38.30;33.90;;;;;;5012189;28;19940;-69
2023/07/28 14:08:48;;;;;;;;;;;38.10;34.70;;;;;;5011902;28;19921;-70
2023/07/28 14:11:14;;;;;;;;;;;38.10;35.00;;;;;;5011028;28;19917;-68